sensor_id;sensor_type;location;lat;lon;timestamp;pressure;altitude;pressure_sealevel;temperature;humidity
43824;BME280;29470;53.550;9.926;2022-09-21T00:03:13;102139.47;;;9.25;100.00
43824;BME280;29470;53.550;9.926;2022-09-21T00:08:16;102145.97;;;9.21;100.00
43824;BME280;29470;53.550;9.926;2022-09-21T00:13:21;102147.50;;;9.19;100.00
43824;BME280;29470;53.550;9.926;2022-09-21T00:18:26;102153.59;;;9.11;100.00
43824;BME280;29470;53.550;9.926;2022-09-21T00:23:29;102148.59;;;9.12;100.00
43824;BME280;29470;53.550;9.926;2022-09-21T00:28:33;102154.50;;;9.11;100.00
43824;BME280;29470;53.550;9.926;2022-09-21T00:33:37;102156.63;;;9.07;100.00
43824;BME280;29470;53.550;9.926;2022-09-21T00:38:40;102152.53;;;9.00;100.00
43824;BME280;29470;53.550;9.926;2022-09-21T00:43:47;102151.78;;;8.92;100.00
43824;BME280;29470;53.550;9.926;2022-09-21T00:48:50;102154.34;;;8.92;100.00
43824;BME280;29470;53.550;9.926;2022-09-21T00:53:59;102157.38;;;8.88;100.00
43824;BME280;29470;53.550;9.926;2022-09-21T00:59:06;102152.84;;;8.86;100.00
43824;BME280;29470;53.550;9.926;2022-09-21T01:04:11;102161.06;;;8.73;100.00
43824;BME280;29470;53.550;9.926;2022-09-21T01:09:15;102159.38;;;8.73;100.00
43824;BME280;29470;53.550;9.926;2022-09-21T01:14:35;102158.47;;;8.73;100.00
43824;BME280;29470;53.550;9.926;2022-09-21T01:19:57;102167.13;;;8.73;100.00
43824;BME280;29470;53.550;9.926;2022-09-21T01:25:14;102172.28;;;8.73;100.00
43824;BME280;29470;53.550;9.926;2022-09-21T01:30:26;102175.00;;;8.66;100.00
43824;BME280;29470;53.550;9.926;2022-09-21T01:35:33;102166.06;;;8.62;100.00
43824;BME280;29470;53.550;9.926;2022-09-21T01:40:42;102163.47;;;8.62;100.00
43824;BME280;29470;53.550;9.926;2022-09-21T01:45:50;102174.06;;;8.57;100.00
43824;BME280;29470;53.550;9.926;2022-09-21T01:50:57;102174.06;;;8.57;100.00
43824;BME280;29470;53.550;9.926;2022-09-21T01:56:04;102176.97;;;8.60;100.00
43824;BME280;29470;53.550;9.926;2022-09-21T02:01:10;102181.81;;;8.57;100.00
43824;BME280;29470;53.550;9.926;2022-09-21T02:06:17;102176.78;;;8.49;100.00
43824;BME280;29470;53.550;9.926;2022-09-21T02:11:21;102170.41;;;8.46;100.00
43824;BME280;29470;53.550;9.926;2022-09-21T02:16:33;102174.69;;;8.54;100.00
43824;BME280;29470;53.550;9.926;2022-09-21T02:21:44;102173.31;;;8.49;100.00
43824;BME280;29470;53.550;9.926;2022-09-21T02:26:56;102179.47;;;8.42;100.00
43824;BME280;29470;53.550;9.926;2022-09-21T02:32:08;102178.72;;;8.34;100.00
43824;BME280;29470;53.550;9.926;2022-09-21T02:37:18;102186.44;;;8.34;100.00
43824;BME280;29470;53.550;9.926;2022-09-21T02:42:25;102188.09;;;8.34;100.00
43824;BME280;29470;53.550;9.926;2022-09-21T02:47:34;102182.00;;;8.24;100.00
43824;BME280;29470;53.550;9.926;2022-09-21T02:52:40;102191.88;;;8.20;100.00
43824;BME280;29470;53.550;9.926;2022-09-21T02:57:46;102182.00;;;8.16;100.00
43824;BME280;29470;53.550;9.926;2022-09-21T03:02:50;102189.88;;;8.17;100.00
43824;BME280;29470;53.550;9.926;2022-09-21T03:07:53;102196.06;;;8.10;100.00
43824;BME280;29470;53.550;9.926;2022-09-21T03:12:57;102195.47;;;8.13;100.00
43824;BME280;29470;53.550;9.926;2022-09-21T03:18:01;102210.34;;;8.16;100.00
43824;BME280;29470;53.550;9.926;2022-09-21T03:23:05;102207.75;;;8.16;100.00
43824;BME280;29470;53.550;9.926;2022-09-21T03:28:08;102201.38;;;8.12;100.00
43824;BME280;29470;53.550;9.926;2022-09-21T03:33:14;102203.81;;;8.10;100.00
43824;BME280;29470;53.550;9.926;2022-09-21T03:38:18;102201.97;;;8.09;100.00
43824;BME280;29470;53.550;9.926;2022-09-21T03:43:22;102205.31;;;8.17;100.00
43824;BME280;29470;53.550;9.926;2022-09-21T03:48:26;102205.44;;;8.10;100.00
43824;BME280;29470;53.550;9.926;2022-09-21T03:53:29;102216.63;;;8.02;100.00
43824;BME280;29470;53.550;9.926;2022-09-21T03:58:32;102217.53;;;7.93;100.00
43824;BME280;29470;53.550;9.926;2022-09-21T04:03:36;102215.84;;;7.94;100.00
43824;BME280;29470;53.550;9.926;2022-09-21T04:08:39;102212.38;;;7.93;100.00
43824;BME280;29470;53.550;9.926;2022-09-21T04:13:48;102215.25;;;7.96;100.00
43824;BME280;29470;53.550;9.926;2022-09-21T04:18:53;102211.91;;;7.97;100.00
43824;BME280;29470;53.550;9.926;2022-09-21T04:23:56;102205.88;;;7.97;100.00
43824;BME280;29470;53.550;9.926;2022-09-21T04:28:59;102199.97;;;7.98;100.00
43824;BME280;29470;53.550;9.926;2022-09-21T04:34:04;102214.03;;;7.93;100.00
43824;BME280;29470;53.550;9.926;2022-09-21T04:39:07;102215.84;;;7.94;100.00
43824;BME280;29470;53.550;9.926;2022-09-21T04:44:09;102213.34;;;8.11;100.00
43824;BME280;29470;53.550;9.926;2022-09-21T04:49:14;102215.13;;;8.37;100.00
43824;BME280;29470;53.550;9.926;2022-09-21T04:54:16;102209.91;;;8.62;100.00
43824;BME280;29470;53.550;9.926;2022-09-21T04:59:19;102214.44;;;8.65;100.00
43824;BME280;29470;53.550;9.926;2022-09-21T05:04:23;102225.19;;;8.52;100.00
43824;BME280;29470;53.550;9.926;2022-09-21T05:09:26;102222.19;;;8.65;100.00
43824;BME280;29470;53.550;9.926;2022-09-21T05:14:47;102229.66;;;8.71;100.00
43824;BME280;29470;53.550;9.926;2022-09-21T05:19:51;102231.91;;;8.76;100.00
43824;BME280;29470;53.550;9.926;2022-09-21T05:24:54;102241.00;;;8.64;100.00
43824;BME280;29470;53.550;9.926;2022-09-21T05:29:58;102242.81;;;8.56;100.00
43824;BME280;29470;53.550;9.926;2022-09-21T05:35:07;102245.84;;;8.61;100.00
43824;BME280;29470;53.550;9.926;2022-09-21T05:40:15;102245.13;;;8.71;100.00
43824;BME280;29470;53.550;9.926;2022-09-21T05:45:19;102253.63;;;8.87;100.00
43824;BME280;29470;53.550;9.926;2022-09-21T05:50:40;102243.78;;;8.83;100.00
43824;BME280;29470;53.550;9.926;2022-09-21T05:55:50;102250.72;;;8.84;100.00
43824;BME280;29470;53.550;9.926;2022-09-21T06:01:07;102252.09;;;8.89;100.00
43824;BME280;29470;53.550;9.926;2022-09-21T06:06:15;102242.88;;;9.00;100.00
43824;BME280;29470;53.550;9.926;2022-09-21T06:11:18;102256.22;;;9.05;100.00
43824;BME280;29470;53.550;9.926;2022-09-21T06:16:22;102249.53;;;9.24;100.00
43824;BME280;29470;53.550;9.926;2022-09-21T06:21:26;102256.66;;;9.53;100.00
43824;BME280;29470;53.550;9.926;2022-09-21T06:26:29;102263.16;;;9.76;100.00
43824;BME280;29470;53.550;9.926;2022-09-21T06:31:31;102259.31;;;10.36;100.00
43824;BME280;29470;53.550;9.926;2022-09-21T06:36:36;102253.97;;;10.43;100.00
43824;BME280;29470;53.550;9.926;2022-09-21T06:41:39;102259.72;;;10.96;100.00
43824;BME280;29470;53.550;9.926;2022-09-21T06:46:44;102262.41;;;11.74;100.00
43824;BME280;29470;53.550;9.926;2022-09-21T06:51:48;102261.34;;;13.24;98.31
43824;BME280;29470;53.550;9.926;2022-09-21T06:56:51;102252.13;;;16.52;80.45
43824;BME280;29470;53.550;9.926;2022-09-21T07:02:00;102255.34;;;18.36;62.46
43824;BME280;29470;53.550;9.926;2022-09-21T07:07:05;102265.44;;;19.80;59.60
43824;BME280;29470;53.550;9.926;2022-09-21T07:12:08;102267.06;;;20.59;55.55
43824;BME280;29470;53.550;9.926;2022-09-21T07:17:11;102266.84;;;21.60;51.63
43824;BME280;29470;53.550;9.926;2022-09-21T07:22:18;102263.34;;;21.24;54.47
43824;BME280;29470;53.550;9.926;2022-09-21T07:27:20;102266.53;;;20.82;55.09
43824;BME280;29470;53.550;9.926;2022-09-21T07:32:23;102267.75;;;20.06;58.24
43824;BME280;29470;53.550;9.926;2022-09-21T07:37:30;102267.19;;;20.44;54.66
43824;BME280;29470;53.550;9.926;2022-09-21T07:42:33;102277.38;;;17.98;62.09
43824;BME280;29470;53.550;9.926;2022-09-21T07:47:36;102283.59;;;16.04;69.51
43824;BME280;29470;53.550;9.926;2022-09-21T07:52:40;102285.25;;;15.31;72.80
43824;BME280;29470;53.550;9.926;2022-09-21T07:57:43;102282.03;;;15.11;75.59
43824;BME280;29470;53.550;9.926;2022-09-21T08:03:04;102276.19;;;14.57;76.92
43824;BME280;29470;53.550;9.926;2022-09-21T08:08:08;102279.41;;;14.43;79.58
43824;BME280;29470;53.550;9.926;2022-09-21T08:13:11;102282.09;;;14.33;80.12
43824;BME280;29470;53.550;9.926;2022-09-21T08:18:14;102287.47;;;14.46;80.77
43824;BME280;29470;53.550;9.926;2022-09-21T08:23:18;102293.72;;;14.48;80.43
43824;BME280;29470;53.550;9.926;2022-09-21T08:28:20;102298.25;;;14.06;81.40
43824;BME280;29470;53.550;9.926;2022-09-21T08:33:23;102290.06;;;14.46;80.46
43824;BME280;29470;53.550;9.926;2022-09-21T08:38:34;102292.13;;;14.50;80.64
43824;BME280;29470;53.550;9.926;2022-09-21T08:43:39;102294.63;;;14.71;76.32
43824;BME280;29470;53.550;9.926;2022-09-21T08:48:46;102294.31;;;14.78;74.67
43824;BME280;29470;53.550;9.926;2022-09-21T08:53:54;102294.38;;;14.90;74.60
43824;BME280;29470;53.550;9.926;2022-09-21T08:58:58;102299.69;;;15.03;69.33
43824;BME280;29470;53.550;9.926;2022-09-21T09:04:30;102302.09;;;15.12;69.71
43824;BME280;29470;53.550;9.926;2022-09-21T09:10:01;102289.97;;;15.13;70.13
43824;BME280;29470;53.550;9.926;2022-09-21T09:15:18;102302.69;;;15.32;65.97
43824;BME280;29470;53.550;9.926;2022-09-21T09:20:28;102311.44;;;15.44;66.38
43824;BME280;29470;53.550;9.926;2022-09-21T09:25:36;102307.94;;;15.56;65.54
43824;BME280;29470;53.550;9.926;2022-09-21T09:30:40;102311.56;;;15.58;65.43
43824;BME280;29470;53.550;9.926;2022-09-21T09:35:46;102313.03;;;15.66;63.96
43824;BME280;29470;53.550;9.926;2022-09-21T09:41:07;102308.94;;;15.70;64.44
43824;BME280;29470;53.550;9.926;2022-09-21T09:46:22;102316.84;;;15.83;66.90
43824;BME280;29470;53.550;9.926;2022-09-21T09:51:30;102312.66;;;15.85;68.19
43824;BME280;29470;53.550;9.926;2022-09-21T09:56:41;102309.47;;;16.01;64.22
43824;BME280;29470;53.550;9.926;2022-09-21T10:01:45;102311.16;;;16.13;64.27
43824;BME280;29470;53.550;9.926;2022-09-21T10:06:48;102306.03;;;16.26;64.09
43824;BME280;29470;53.550;9.926;2022-09-21T10:11:55;102308.28;;;16.33;62.48
43824;BME280;29470;53.550;9.926;2022-09-21T10:17:04;102306.03;;;16.26;62.92
43824;BME280;29470;53.550;9.926;2022-09-21T10:22:14;102309.00;;;16.19;60.85
43824;BME280;29470;53.550;9.926;2022-09-21T10:27:21;102300.06;;;16.41;59.41
43824;BME280;29470;53.550;9.926;2022-09-21T10:32:27;102306.06;;;16.52;59.64
43824;BME280;29470;53.550;9.926;2022-09-21T10:37:31;102288.59;;;16.89;59.13
43824;BME280;29470;53.550;9.926;2022-09-21T10:42:51;102291.72;;;17.22;57.44
43824;BME280;29470;53.550;9.926;2022-09-21T10:47:58;102283.50;;;17.43;56.71
43824;BME280;29470;53.550;9.926;2022-09-21T10:53:16;102277.88;;;17.50;55.73
43824;BME280;29470;53.550;9.926;2022-09-21T10:58:22;102272.47;;;17.89;56.29
43824;BME280;29470;53.550;9.926;2022-09-21T11:03:37;102268.28;;;18.20;54.42
43824;BME280;29470;53.550;9.926;2022-09-21T11:08:48;102264.00;;;18.35;55.14
43824;BME280;29470;53.550;9.926;2022-09-21T11:14:00;102257.13;;;18.22;54.46
43824;BME280;29470;53.550;9.926;2022-09-21T11:19:15;102270.66;;;18.15;54.23
43824;BME280;29470;53.550;9.926;2022-09-21T11:24:23;102260.41;;;18.05;52.86
43824;BME280;29470;53.550;9.926;2022-09-21T11:29:49;102270.03;;;18.19;52.48
43824;BME280;29470;53.550;9.926;2022-09-21T11:35:32;102267.69;;;18.24;51.34
43824;BME280;29470;53.550;9.926;2022-09-21T11:40:52;102265.03;;;18.09;51.25
43824;BME280;29470;53.550;9.926;2022-09-21T11:46:07;102259.72;;;18.66;50.06
43824;BME280;29470;53.550;9.926;2022-09-21T11:51:24;102262.47;;;18.67;50.87
43824;BME280;29470;53.550;9.926;2022-09-21T11:56:44;102262.91;;;18.75;50.66
43824;BME280;29470;53.550;9.926;2022-09-21T12:02:03;102259.56;;;18.19;51.70
43824;BME280;29470;53.550;9.926;2022-09-21T12:07:34;102251.00;;;17.95;45.82
43824;BME280;29470;53.550;9.926;2022-09-21T12:12:45;102264.03;;;17.93;44.49
43824;BME280;29470;53.550;9.926;2022-09-21T12:17:57;102256.69;;;17.74;43.96
43824;BME280;29470;53.550;9.926;2022-09-21T12:23:07;102253.72;;;17.55;44.79
43824;BME280;29470;53.550;9.926;2022-09-21T12:28:17;102247.09;;;17.46;45.37
43824;BME280;29470;53.550;9.926;2022-09-21T12:33:34;102241.13;;;17.35;45.75
43824;BME280;29470;53.550;9.926;2022-09-21T12:38:44;102242.25;;;17.26;45.68
43824;BME280;29470;53.550;9.926;2022-09-21T12:43:56;102233.88;;;17.18;46.74
43824;BME280;29470;53.550;9.926;2022-09-21T12:49:11;102236.44;;;16.91;48.35
43824;BME280;29470;53.550;9.926;2022-09-21T12:54:27;102229.88;;;17.36;47.55
43824;BME280;29470;53.550;9.926;2022-09-21T12:59:35;102228.97;;;17.49;46.61
43824;BME280;29470;53.550;9.926;2022-09-21T13:04:52;102227.34;;;17.51;46.38
43824;BME280;29470;53.550;9.926;2022-09-21T13:10:00;102218.19;;;17.58;45.89
43824;BME280;29470;53.550;9.926;2022-09-21T13:15:13;102213.69;;;17.42;43.77
43824;BME280;29470;53.550;9.926;2022-09-21T13:20:20;102206.66;;;17.28;46.05
43824;BME280;29470;53.550;9.926;2022-09-21T13:25:25;102215.78;;;17.34;46.83
43824;BME280;29470;53.550;9.926;2022-09-21T13:30:36;102204.63;;;17.50;45.83
43824;BME280;29470;53.550;9.926;2022-09-21T13:35:59;102204.50;;;17.49;45.56
43824;BME280;29470;53.550;9.926;2022-09-21T13:41:18;102202.63;;;17.46;44.87
43824;BME280;29470;53.550;9.926;2022-09-21T13:52:04;102192.69;;;17.69;44.84
43824;BME280;29470;53.550;9.926;2022-09-21T13:57:17;102186.00;;;17.88;45.96
43824;BME280;29470;53.550;9.926;2022-09-21T14:02:28;102188.34;;;17.83;44.74
43824;BME280;29470;53.550;9.926;2022-09-21T14:07:35;102180.53;;;17.98;47.47
43824;BME280;29470;53.550;9.926;2022-09-21T14:12:46;102177.44;;;18.04;46.42
43824;BME280;29470;53.550;9.926;2022-09-21T14:18:18;102169.84;;;18.08;46.80
43824;BME280;29470;53.550;9.926;2022-09-21T14:23:29;102171.28;;;18.47;45.96
43824;BME280;29470;53.550;9.926;2022-09-21T14:28:36;102165.66;;;18.40;46.36
43824;BME280;29470;53.550;9.926;2022-09-21T14:33:44;102172.09;;;18.76;45.96
43824;BME280;29470;53.550;9.926;2022-09-21T14:38:52;102164.53;;;18.50;44.51
43824;BME280;29470;53.550;9.926;2022-09-21T14:44:01;102167.59;;;18.43;44.12
43824;BME280;29470;53.550;9.926;2022-09-21T14:54:38;102155.00;;;18.37;44.53
43824;BME280;29470;53.550;9.926;2022-09-21T15:00:03;102145.19;;;18.48;44.47
43824;BME280;29470;53.550;9.926;2022-09-21T15:05:19;102146.03;;;18.04;44.80
43824;BME280;29470;53.550;9.926;2022-09-21T15:10:27;102153.09;;;17.63;46.10
43824;BME280;29470;53.550;9.926;2022-09-21T15:16:08;102146.16;;;17.50;46.33
43824;BME280;29470;53.550;9.926;2022-09-21T15:21:21;102146.91;;;17.34;47.51
43824;BME280;29470;53.550;9.926;2022-09-21T15:26:28;102136.72;;;17.38;47.11
43824;BME280;29470;53.550;9.926;2022-09-21T15:31:35;102136.34;;;17.19;47.40
43824;BME280;29470;53.550;9.926;2022-09-21T15:36:39;102144.81;;;17.01;47.54
43824;BME280;29470;53.550;9.926;2022-09-21T15:41:46;102143.16;;;16.90;46.83
43824;BME280;29470;53.550;9.926;2022-09-21T15:46:52;102140.66;;;16.78;48.03
43824;BME280;29470;53.550;9.926;2022-09-21T15:52:04;102128.88;;;16.58;50.00
43824;BME280;29470;53.550;9.926;2022-09-21T15:57:28;102133.59;;;16.50;50.70
43824;BME280;29470;53.550;9.926;2022-09-21T16:02:39;102139.00;;;16.53;51.08
43824;BME280;29470;53.550;9.926;2022-09-21T16:07:44;102141.97;;;16.32;53.13
43824;BME280;29470;53.550;9.926;2022-09-21T16:12:48;102136.94;;;16.22;53.32
43824;BME280;29470;53.550;9.926;2022-09-21T16:17:57;102139.06;;;16.02;54.25
43824;BME280;29470;53.550;9.926;2022-09-21T16:23:03;102138.84;;;15.99;53.84
43824;BME280;29470;53.550;9.926;2022-09-21T16:28:28;102135.63;;;15.78;54.90
43824;BME280;29470;53.550;9.926;2022-09-21T16:33:34;102137.50;;;15.67;53.67
43824;BME280;29470;53.550;9.926;2022-09-21T16:38:38;102135.47;;;15.51;53.66
43824;BME280;29470;53.550;9.926;2022-09-21T16:43:42;102140.59;;;15.38;54.29
43824;BME280;29470;53.550;9.926;2022-09-21T16:48:45;102148.09;;;15.21;55.08
43824;BME280;29470;53.550;9.926;2022-09-21T16:53:49;102146.97;;;15.06;56.63
43824;BME280;29470;53.550;9.926;2022-09-21T16:58:54;102153.00;;;14.93;57.63
43824;BME280;29470;53.550;9.926;2022-09-21T17:03:57;102149.16;;;14.87;58.83
43824;BME280;29470;53.550;9.926;2022-09-21T17:09:01;102147.09;;;14.71;59.46
43824;BME280;29470;53.550;9.926;2022-09-21T17:14:11;102152.81;;;14.55;59.69
43824;BME280;29470;53.550;9.926;2022-09-21T17:19:17;102151.78;;;14.41;60.50
43824;BME280;29470;53.550;9.926;2022-09-21T17:24:20;102154.88;;;14.25;61.57
43824;BME280;29470;53.550;9.926;2022-09-21T17:29:45;102148.38;;;14.08;62.87
43824;BME280;29470;53.550;9.926;2022-09-21T17:34:53;102153.41;;;13.95;64.04
43824;BME280;29470;53.550;9.926;2022-09-21T17:39:57;102145.94;;;13.88;64.88
43824;BME280;29470;53.550;9.926;2022-09-21T17:45:08;102155.25;;;13.74;65.54
43824;BME280;29470;53.550;9.926;2022-09-21T17:50:19;102146.34;;;13.60;67.06
43824;BME280;29470;53.550;9.926;2022-09-21T17:55:24;102152.50;;;13.50;68.01
43824;BME280;29470;53.550;9.926;2022-09-21T18:00:33;102149.28;;;13.42;68.88
43824;BME280;29470;53.550;9.926;2022-09-21T18:05:40;102155.41;;;13.43;69.15
43824;BME280;29470;53.550;9.926;2022-09-21T18:10:48;102155.66;;;13.46;69.07
43824;BME280;29470;53.550;9.926;2022-09-21T18:16:10;102153.69;;;13.43;69.39
43824;BME280;29470;53.550;9.926;2022-09-21T18:21:21;102158.25;;;13.35;70.33
43824;BME280;29470;53.550;9.926;2022-09-21T18:26:26;102161.69;;;13.24;71.13
43824;BME280;29470;53.550;9.926;2022-09-21T18:31:46;102166.91;;;13.14;71.91
43824;BME280;29470;53.550;9.926;2022-09-21T18:36:56;102170.72;;;13.07;72.20
43824;BME280;29470;53.550;9.926;2022-09-21T18:42:22;102173.44;;;12.98;72.92
43824;BME280;29470;53.550;9.926;2022-09-21T18:47:33;102169.56;;;12.93;73.39
43824;BME280;29470;53.550;9.926;2022-09-21T18:52:46;102163.59;;;12.84;74.09
43824;BME280;29470;53.550;9.926;2022-09-21T18:57:54;102169.97;;;12.77;75.46
43824;BME280;29470;53.550;9.926;2022-09-21T19:03:00;102165.84;;;12.69;75.77
43824;BME280;29470;53.550;9.926;2022-09-21T19:08:24;102162.59;;;12.61;77.15
43824;BME280;29470;53.550;9.926;2022-09-21T19:13:38;102164.66;;;12.55;77.71
43824;BME280;29470;53.550;9.926;2022-09-21T19:18:52;102164.16;;;12.48;77.86
43824;BME280;29470;53.550;9.926;2022-09-21T19:24:05;102172.19;;;12.41;78.42
43824;BME280;29470;53.550;9.926;2022-09-21T19:29:23;102174.53;;;12.38;78.72
43824;BME280;29470;53.550;9.926;2022-09-21T19:34:34;102173.25;;;12.33;80.20
43824;BME280;29470;53.550;9.926;2022-09-21T19:39:37;102180.53;;;12.27;81.52
43824;BME280;29470;53.550;9.926;2022-09-21T19:44:48;102183.47;;;12.21;82.20
43824;BME280;29470;53.550;9.926;2022-09-21T19:50:15;102179.06;;;12.10;82.24
43824;BME280;29470;53.550;9.926;2022-09-21T19:55:20;102180.34;;;12.04;83.16
43824;BME280;29470;53.550;9.926;2022-09-21T20:00:41;102186.25;;;11.93;83.24
43824;BME280;29470;53.550;9.926;2022-09-21T20:05:50;102187.00;;;11.82;83.78
43824;BME280;29470;53.550;9.926;2022-09-21T20:11:03;102189.47;;;11.80;84.49
43824;BME280;29470;53.550;9.926;2022-09-21T20:16:18;102190.34;;;11.81;85.39
43824;BME280;29470;53.550;9.926;2022-09-21T20:21:32;102192.06;;;11.80;86.18
43824;BME280;29470;53.550;9.926;2022-09-21T20:26:37;102199.84;;;11.80;86.23
43824;BME280;29470;53.550;9.926;2022-09-21T20:31:40;102197.19;;;11.70;87.44
43824;BME280;29470;53.550;9.926;2022-09-21T20:36:44;102193.28;;;11.64;87.82
43824;BME280;29470;53.550;9.926;2022-09-21T20:41:47;102197.00;;;11.58;87.73
43824;BME280;29470;53.550;9.926;2022-09-21T20:46:50;102198.56;;;11.56;88.32
43824;BME280;29470;53.550;9.926;2022-09-21T20:51:54;102207.88;;;11.54;88.93
43824;BME280;29470;53.550;9.926;2022-09-21T20:56:59;102198.72;;;11.57;89.12
43824;BME280;29470;53.550;9.926;2022-09-21T21:02:02;102196.75;;;11.55;88.72
43824;BME280;29470;53.550;9.926;2022-09-21T21:07:06;102197.41;;;11.52;89.31
43824;BME280;29470;53.550;9.926;2022-09-21T21:12:09;102197.78;;;11.46;89.50
43824;BME280;29470;53.550;9.926;2022-09-21T21:17:13;102195.91;;;11.35;90.16
43824;BME280;29470;53.550;9.926;2022-09-21T21:22:17;102195.34;;;11.29;91.13
43824;BME280;29470;53.550;9.926;2022-09-21T21:27:22;102203.91;;;11.28;91.77
43824;BME280;29470;53.550;9.926;2022-09-21T21:32:26;102199.34;;;11.25;92.02
43824;BME280;29470;53.550;9.926;2022-09-21T21:37:30;102201.91;;;11.25;92.29
43824;BME280;29470;53.550;9.926;2022-09-21T21:42:33;102198.56;;;11.26;92.58
43824;BME280;29470;53.550;9.926;2022-09-21T21:47:36;102198.72;;;11.28;92.59
43824;BME280;29470;53.550;9.926;2022-09-21T21:52:43;102195.09;;;11.26;92.66
43824;BME280;29470;53.550;9.926;2022-09-21T21:57:45;102198.84;;;11.29;92.33
43824;BME280;29470;53.550;9.926;2022-09-21T22:02:48;102199.75;;;11.30;92.43
43824;BME280;29470;53.550;9.926;2022-09-21T22:07:52;102201.31;;;11.28;92.86
43824;BME280;29470;53.550;9.926;2022-09-21T22:12:55;102194.66;;;11.21;93.77
43824;BME280;29470;53.550;9.926;2022-09-21T22:17:58;102190.72;;;11.16;94.23
43824;BME280;29470;53.550;9.926;2022-09-21T22:23:03;102186.91;;;11.02;94.76
43824;BME280;29470;53.550;9.926;2022-09-21T22:28:06;102204.81;;;10.90;96.32
43824;BME280;29470;53.550;9.926;2022-09-21T22:33:09;102195.59;;;10.83;96.66
43824;BME280;29470;53.550;9.926;2022-09-21T22:38:13;102191.66;;;10.78;97.42
43824;BME280;29470;53.550;9.926;2022-09-21T22:43:15;102193.69;;;10.72;98.44
43824;BME280;29470;53.550;9.926;2022-09-21T22:48:18;102195.06;;;10.68;98.72
43824;BME280;29470;53.550;9.926;2022-09-21T22:53:23;102192.69;;;10.61;98.91
43824;BME280;29470;53.550;9.926;2022-09-21T22:58:26;102181.31;;;10.59;99.82
43824;BME280;29470;53.550;9.926;2022-09-21T23:03:29;102179.97;;;10.54;100.00
43824;BME280;29470;53.550;9.926;2022-09-21T23:08:34;102181.44;;;10.41;100.00
43824;BME280;29470;53.550;9.926;2022-09-21T23:13:37;102182.47;;;10.35;100.00
43824;BME280;29470;53.550;9.926;2022-09-21T23:18:41;102177.94;;;10.32;100.00
43824;BME280;29470;53.550;9.926;2022-09-21T23:23:46;102178.56;;;10.29;100.00
43824;BME280;29470;53.550;9.926;2022-09-21T23:28:51;102168.09;;;10.28;100.00
43824;BME280;29470;53.550;9.926;2022-09-21T23:33:56;102165.81;;;10.22;100.00
43824;BME280;29470;53.550;9.926;2022-09-21T23:39:01;102165.59;;;10.10;100.00
43824;BME280;29470;53.550;9.926;2022-09-21T23:44:04;102156.50;;;10.05;100.00
43824;BME280;29470;53.550;9.926;2022-09-21T23:49:07;102153.63;;;10.02;100.00
43824;BME280;29470;53.550;9.926;2022-09-21T23:54:11;102152.22;;;10.06;100.00
43824;BME280;29470;53.550;9.926;2022-09-21T23:59:15;102157.38;;;10.14;100.00
